Time;durP1;ratioP1;P1;durP2;ratioP2;P2;SDS_P1;SDS_P2;PMS_P1;PMS_P2;Temp;Humidity;BMP_temperature;BMP_pressure;BME280_temperature;BME280_humidity;BME280_pressure;Samples;Min_cycle;Max_cycle;Signal;HPM_P1;HPM_P2
2023/01/28 00:00:26;;;;;;;31.60;15.05;;;-2.30;99.90;;;;;;5074641;28;20390;-82
2023/01/28 00:02:52;;;;;;;25.08;13.10;;;-2.30;99.90;;;;;;5074456;28;20040;-81
2023/01/28 00:05:17;;;;;;;37.05;15.82;;;-2.30;99.90;;;;;;5075448;28;20081;-81
2023/01/28 00:07:43;;;;;;;35.42;14.77;;;-2.20;99.90;;;;;;5074458;28;20029;-81
2023/01/28 00:10:09;;;;;;;40.95;16.58;;;-2.30;99.90;;;;;;5074545;28;20028;-81
2023/01/28 00:12:35;;;;;;;31.50;14.25;;;-2.30;99.90;;;;;;5075786;28;20020;-80
2023/01/28 00:15:01;;;;;;;27.70;13.50;;;-2.30;99.90;;;;;;5074474;28;20031;-81
2023/01/28 00:17:26;;;;;;;39.72;14.93;;;-2.20;99.90;;;;;;5074358;28;20020;-81
2023/01/28 00:19:52;;;;;;;30.35;13.80;;;-2.30;99.90;;;;;;5075465;28;20041;-82
2023/01/28 00:22:18;;;;;;;29.52;13.55;;;-2.30;99.90;;;;;;5075515;28;20077;-82
2023/01/28 00:24:44;;;;;;;28.02;13.60;;;-2.30;99.60;;;;;;5075401;28;20037;-84
2023/01/28 00:27:10;;;;;;;22.10;11.75;;;-2.30;99.90;;;;;;5075375;28;20429;-83
2023/01/28 00:29:36;;;;;;;31.42;14.10;;;-2.30;99.50;;;;;;5074147;28;20020;-83
2023/01/28 00:32:02;;;;;;;29.42;12.63;;;-2.30;99.70;;;;;;5074230;28;20027;-83
2023/01/28 00:34:27;;;;;;;38.03;16.33;;;-2.30;99.90;;;;;;5074088;28;20024;-83
2023/01/28 00:36:59;;;;;;;26.60;13.23;;;-2.30;99.90;;;;;;5073963;28;20111;-84
2023/01/28 00:39:25;;;;;;;29.73;14.25;;;-2.30;99.90;;;;;;5075268;28;20028;-83
2023/01/28 00:41:52;;;;;;;31.98;14.35;;;-2.30;99.90;;;;;;5074329;28;20119;-82
2023/01/28 00:44:18;;;;;;;32.83;15.20;;;-2.30;99.90;;;;;;5073750;28;20067;-82
2023/01/28 00:46:44;;;;;;;34.30;14.93;;;-2.30;99.90;;;;;;5075082;28;20070;-83
2023/01/28 00:49:10;;;;;;;28.15;14.90;;;-2.30;99.90;;;;;;5073686;28;20504;-82
2023/01/28 00:51:36;;;;;;;31.63;15.18;;;-2.30;99.90;;;;;;5073828;28;20108;-83
2023/01/28 00:54:02;;;;;;;30.77;14.50;;;-2.30;99.90;;;;;;5073756;28;20013;-83
2023/01/28 00:56:27;;;;;;;31.77;14.70;;;-2.20;99.90;;;;;;5073628;28;20020;-82
2023/01/28 00:58:53;;;;;;;31.88;14.73;;;-2.30;99.90;;;;;;5074781;28;20056;-82
2023/01/28 01:01:24;;;;;;;32.60;14.63;;;-2.20;99.90;;;;;;5073583;28;20052;-82
2023/01/28 01:04:11;;;;;;;28.08;13.43;;;-2.20;99.90;;;;;;5073501;28;20405;-82
2023/01/28 01:06:38;;;;;;;31.85;16.08;;;-2.20;99.90;;;;;;5074530;28;20025;-82
2023/01/28 01:09:06;;;;;;;27.75;13.77;;;-2.20;99.90;;;;;;5073407;28;20547;-83
2023/01/28 01:11:32;;;;;;;28.92;14.88;;;-2.20;99.90;;;;;;5074691;28;20116;-83
2023/01/28 01:13:59;;;;;;;27.05;13.48;;;-2.20;99.90;;;;;;5073365;28;20054;-83
2023/01/28 01:16:28;;;;;;;30.75;14.80;;;-2.20;99.90;;;;;;5073213;28;20024;-83
2023/01/28 01:18:55;;;;;;;33.58;16.17;;;-2.20;99.90;;;;;;5081102;28;20111;-84
2023/01/28 01:21:25;;;;;;;29.65;15.40;;;-2.20;99.90;;;;;;5077079;28;20008;-84
2023/01/28 01:23:51;;;;;;;31.92;16.33;;;-2.20;99.90;;;;;;5094492;28;20036;-84
2023/01/28 01:26:16;;;;;;;32.28;15.18;;;-2.30;99.90;;;;;;5094545;28;20095;-84
2023/01/28 01:28:42;;;;;;;30.63;13.93;;;-2.30;99.90;;;;;;5076640;28;20023;-80
2023/01/28 01:31:13;;;;;;;32.33;14.75;;;-2.30;99.90;;;;;;5076363;28;20443;-81
2023/01/28 01:33:39;;;;;;;26.75;12.90;;;-2.30;99.90;;;;;;5076256;28;20393;-81
2023/01/28 01:36:06;;;;;;;27.20;13.32;;;-2.30;99.90;;;;;;5076145;28;20069;-81
2023/01/28 01:38:32;;;;;;;25.60;13.75;;;-2.30;99.90;;;;;;5075981;28;20020;-84
2023/01/28 01:40:59;;;;;;;32.75;16.55;;;-2.30;99.90;;;;;;5094222;28;20028;-83
2023/01/28 01:43:25;;;;;;;24.77;14.43;;;-2.40;99.90;;;;;;5075928;28;20040;-83
2023/01/28 01:45:59;;;;;;;30.77;13.40;;;-2.40;99.90;;;;;;5094483;28;20069;-86
2023/01/28 01:48:29;;;;;;;31.42;13.43;;;-2.40;99.90;;;;;;5094408;28;20438;-85
2023/01/28 01:51:00;;;;;;;27.30;13.63;;;-2.40;99.90;;;;;;5076164;28;20036;-85
2023/01/28 01:53:28;;;;;;;35.70;15.00;;;-2.40;99.90;;;;;;5075971;28;20536;-84
2023/01/28 01:55:58;;;;;;;34.03;16.30;;;-2.40;99.90;;;;;;5075559;28;20027;-86
2023/01/28 01:58:27;;;;;;;33.13;14.07;;;-2.40;99.90;;;;;;5076207;28;20103;-87
2023/01/28 02:00:53;;;;;;;24.13;12.60;;;-2.40;99.90;;;;;;5075619;28;20023;-86
2023/01/28 02:03:25;;;;;;;32.75;15.00;;;-2.40;99.90;;;;;;5093576;28;20040;-86
2023/01/28 02:05:51;;;;;;;30.55;14.55;;;-2.40;99.90;;;;;;5094068;28;20032;-86
2023/01/28 02:08:24;;;;;;;26.88;13.88;;;-2.40;99.90;;;;;;5075804;28;20028;-86
2023/01/28 02:10:55;;;;;;;25.70;13.43;;;-2.40;99.90;;;;;;5093687;28;20027;-86
2023/01/28 02:13:25;;;;;;;32.42;18.08;;;-2.40;99.90;;;;;;5075484;28;20031;-84
2023/01/28 02:15:51;;;;;;;39.40;19.73;;;-2.40;99.90;;;;;;5093788;28;20447;-87
2023/01/28 02:18:17;;;;;;;31.85;13.82;;;-2.40;99.90;;;;;;5075203;28;20055;-84
2023/01/28 02:21:07;;;;;;;31.25;15.18;;;-2.40;99.90;;;;;;5093385;28;20044;-85
2023/01/28 02:23:54;;;;;;;26.10;13.43;;;-2.40;99.90;;;;;;5075464;28;20036;-85
2023/01/28 02:26:34;;;;;;;23.92;12.88;;;-2.40;99.90;;;;;;5093350;28;20060;-84
2023/01/28 02:29:31;;;;;;;29.30;13.85;;;-2.40;99.90;;;;;;5074653;28;20423;-85
2023/01/28 02:32:23;;;;;;;32.50;14.85;;;-2.40;99.90;;;;;;5074935;28;20028;-83
2023/01/28 02:35:23;;;;;;;25.23;12.80;;;-2.40;99.90;;;;;;5093543;28;20028;-82
2023/01/28 02:37:54;;;;;;;25.48;13.10;;;-2.40;99.90;;;;;;5093630;28;20103;-82
2023/01/28 02:40:28;;;;;;;22.20;12.30;;;-2.40;99.90;;;;;;5093639;28;20082;-82
2023/01/28 02:42:54;;;;;;;30.02;13.63;;;-2.40;99.90;;;;;;5093470;28;20024;-82
2023/01/28 02:48:19;;;;;;;34.42;16.00;;;-2.30;99.90;;;;;;5093714;28;20073;-82
2023/01/28 02:51:05;;;;;;;35.55;17.73;;;-2.40;99.90;;;;;;5075223;28;20054;-82
2023/01/28 02:53:44;;;;;;;28.08;14.10;;;-2.30;99.90;;;;;;5075142;28;20020;-82
2023/01/28 02:56:36;;;;;;;25.13;14.10;;;-2.30;99.90;;;;;;5075241;28;20073;-82
2023/01/28 03:02:21;;;;;;;24.63;13.25;;;-2.40;99.90;;;;;;5093458;28;20034;-82
2023/01/28 03:04:49;;;;;;;26.15;13.02;;;-2.40;99.90;;;;;;5075058;28;20032;-82
2023/01/28 03:07:16;;;;;;;29.02;13.75;;;-2.40;99.90;;;;;;5093187;28;20029;-82
2023/01/28 03:09:46;;;;;;;25.67;13.05;;;-2.40;99.90;;;;;;5093250;28;20374;-82
2023/01/28 03:38:17;;;;;;;30.95;12.75;;;-2.20;99.90;;;;;;5092972;28;20047;-83
2023/01/28 03:40:59;;;;;;;29.40;12.98;;;-2.20;99.90;;;;;;5075562;28;20020;-83
2023/01/28 03:43:24;;;;;;;26.35;14.43;;;-2.20;99.90;;;;;;5078509;28;20040;-83
2023/01/28 03:45:51;;;;;;;28.23;12.45;;;-2.30;99.90;;;;;;5078448;28;20362;-85
2023/01/28 03:48:18;;;;;;;28.90;12.82;;;-2.20;99.90;;;;;;5096684;28;20427;-86
2023/01/28 03:50:43;;;;;;;24.85;12.25;;;-2.20;99.90;;;;;;5078282;28;20009;-81
2023/01/28 03:53:12;;;;;;;27.60;13.60;;;-2.20;99.90;;;;;;5096460;28;20032;-81
2023/01/28 03:55:38;;;;;;;26.85;12.85;;;-2.30;99.90;;;;;;5078088;28;20035;-83
2023/01/28 03:58:07;;;;;;;26.92;14.13;;;-2.30;99.90;;;;;;5078147;28;20012;-83
2023/01/28 04:00:36;;;;;;;26.70;13.25;;;-2.20;99.90;;;;;;5096374;28;20021;-83
2023/01/28 04:03:03;;;;;;;23.40;12.40;;;-2.20;99.90;;;;;;5078335;28;20036;-83
2023/01/28 04:05:29;;;;;;;29.20;13.77;;;-2.20;99.90;;;;;;5077983;28;20020;-83
2023/01/28 04:07:55;;;;;;;28.60;14.32;;;-2.20;99.90;;;;;;5077941;28;20031;-83
2023/01/28 04:10:21;;;;;;;27.45;13.30;;;-2.30;99.90;;;;;;5096031;28;20031;-84
2023/01/28 04:12:48;;;;;;;39.72;16.15;;;-2.30;99.90;;;;;;5095938;28;20020;-84
2023/01/28 04:15:15;;;;;;;31.27;15.27;;;-2.30;99.90;;;;;;5077807;28;20039;-83
2023/01/28 04:17:47;;;;;;;33.22;14.07;;;-2.30;99.90;;;;;;5096157;28;20099;-86
2023/01/28 04:20:13;;;;;;;29.90;13.23;;;-2.30;99.90;;;;;;5077854;28;20048;-83
2023/01/28 04:22:40;;;;;;;36.00;14.80;;;-2.40;99.90;;;;;;5077913;28;20098;-86
2023/01/28 04:25:06;;;;;;;28.08;13.30;;;-2.40;99.90;;;;;;5095755;28;20078;-83
2023/01/28 04:27:32;;;;;;;33.00;14.10;;;-2.30;99.90;;;;;;5095709;28;20017;-87
2023/01/28 04:29:58;;;;;;;29.98;14.90;;;-2.30;99.90;;;;;;5095518;28;20024;-83
2023/01/28 04:32:23;;;;;;;27.73;13.80;;;-2.40;99.90;;;;;;5095630;28;20392;-86
2023/01/28 04:34:49;;;;;;;33.70;15.07;;;-2.40;99.90;;;;;;5095404;28;20024;-82
2023/01/28 04:37:14;;;;;;;35.53;14.85;;;-2.40;99.90;;;;;;5095553;28;20048;-83
2023/01/28 04:39:40;;;;;;;27.45;15.18;;;-2.40;99.90;;;;;;5095602;28;20021;-82
2023/01/28 04:42:05;;;;;;;34.85;16.85;;;-2.40;99.90;;;;;;5095676;28;20458;-85
2023/01/28 04:44:31;;;;;;;34.63;17.80;;;-2.40;99.90;;;;;;5077212;28;20552;-82
2023/01/28 04:46:56;;;;;;;39.65;19.23;;;-2.40;99.90;;;;;;5095280;28;20028;-86
2023/01/28 04:49:22;;;;;;;41.00;21.08;;;-2.40;99.90;;;;;;5077452;28;20105;-84
2023/01/28 04:51:48;;;;;;;33.40;16.70;;;-2.30;99.90;;;;;;5077017;28;20113;-85
2023/01/28 04:54:13;;;;;;;29.38;14.70;;;-2.40;99.90;;;;;;5095303;28;20021;-88
2023/01/28 04:56:39;;;;;;;26.85;13.57;;;-2.40;99.90;;;;;;5076766;28;20070;-84
2023/01/28 04:59:04;;;;;;;24.75;12.48;;;-2.40;99.90;;;;;;5094976;28;20063;-84
2023/01/28 05:01:30;;;;;;;29.48;15.32;;;-2.40;99.90;;;;;;5076738;28;20082;-84
2023/01/28 05:03:56;;;;;;;31.73;15.18;;;-2.40;99.90;;;;;;5094746;28;20044;-84
2023/01/28 05:06:21;;;;;;;29.05;14.10;;;-2.40;99.90;;;;;;5095348;28;20026;-88
2023/01/28 05:08:47;;;;;;;30.95;15.07;;;-2.40;99.90;;;;;;5094743;28;20388;-84
2023/01/28 05:11:13;;;;;;;34.95;14.85;;;-2.40;99.90;;;;;;5094777;28;20095;-86
2023/01/28 05:13:38;;;;;;;27.85;13.75;;;-2.40;99.90;;;;;;5076258;28;20065;-88
2023/01/28 05:16:05;;;;;;;27.13;12.52;;;-2.50;99.90;;;;;;5059248;28;20032;-84
2023/01/28 05:18:31;;;;;;;29.05;12.55;;;-2.50;99.90;;;;;;5073799;28;20697;-88
2023/01/28 05:20:57;;;;;;;24.52;12.98;;;-2.60;99.90;;;;;;5073089;28;20062;-84
2023/01/28 05:23:23;;;;;;;28.50;14.30;;;-2.60;99.90;;;;;;5074363;28;20075;-83
2023/01/28 05:25:48;;;;;;;24.63;12.85;;;-2.60;99.90;;;;;;5074099;28;20066;-86
2023/01/28 05:28:15;;;;;;;24.67;12.45;;;-2.60;99.90;;;;;;5074178;28;20024;-84
2023/01/28 05:30:40;;;;;;;29.20;14.70;;;-2.60;99.90;;;;;;5074074;28;20025;-87
2023/01/28 05:33:06;;;;;;;29.33;13.98;;;-2.60;99.90;;;;;;5074075;28;20222;-84
2023/01/28 05:35:32;;;;;;;25.55;13.43;;;-2.60;99.90;;;;;;5073975;28;20020;-83
2023/01/28 05:37:57;;;;;;;25.10;12.07;;;-2.60;99.90;;;;;;5072819;28;20024;-84
2023/01/28 05:40:23;;;;;;;26.92;14.68;;;-2.60;99.90;;;;;;5074016;28;20028;-85
2023/01/28 05:42:48;;;;;;;28.80;13.32;;;-2.60;99.90;;;;;;5073008;28;20040;-84
2023/01/28 05:45:14;;;;;;;43.03;18.23;;;-2.60;99.90;;;;;;5072536;28;20021;-86
2023/01/28 05:47:40;;;;;;;34.85;16.30;;;-2.60;99.90;;;;;;5072630;28;20111;-86
2023/01/28 05:50:06;;;;;;;32.38;15.63;;;-2.60;99.90;;;;;;5072480;28;20056;-83
2023/01/28 05:52:32;;;;;;;34.38;15.05;;;-2.60;99.90;;;;;;5072520;28;20020;-86
2023/01/28 05:54:58;;;;;;;40.70;18.08;;;-2.60;99.90;;;;;;5072636;28;20074;-86
2023/01/28 05:57:23;;;;;;;35.45;16.25;;;-2.60;99.90;;;;;;5072541;28;20051;-84
2023/01/28 05:59:49;;;;;;;33.47;14.45;;;-2.60;99.90;;;;;;5072797;28;20021;-83
2023/01/28 06:02:15;;;;;;;30.67;13.73;;;-2.60;99.90;;;;;;5072514;28;20119;-83
2023/01/28 06:04:40;;;;;;;27.30;14.52;;;-2.60;99.90;;;;;;5072983;28;20494;-84
2023/01/28 06:07:06;;;;;;;27.92;13.88;;;-2.60;99.90;;;;;;5073772;28;20032;-83
2023/01/28 06:09:31;;;;;;;25.02;12.57;;;-2.60;99.90;;;;;;5073175;28;20099;-83
2023/01/28 06:11:57;;;;;;;31.50;16.10;;;-2.60;99.90;;;;;;5072128;28;20012;-87
2023/01/28 06:14:22;;;;;;;36.10;16.42;;;-2.50;99.90;;;;;;5071720;28;20017;-83
2023/01/28 06:16:51;;;;;;;24.05;11.65;;;-2.50;99.90;;;;;;5073373;28;20040;-83
2023/01/28 06:19:16;;;;;;;26.77;13.63;;;-2.50;99.90;;;;;;5072839;28;20045;-87
2023/01/28 06:21:42;;;;;;;28.83;14.05;;;-2.60;99.90;;;;;;5073207;28;20150;-87
2023/01/28 06:24:08;;;;;;;29.08;14.10;;;-2.50;99.90;;;;;;5073160;28;20032;-84
2023/01/28 06:26:33;;;;;;;25.02;13.23;;;-2.60;99.90;;;;;;5072002;28;20445;-84
2023/01/28 06:28:59;;;;;;;22.40;11.65;;;-2.60;99.90;;;;;;5073300;28;20028;-83
2023/01/28 06:31:24;;;;;;;26.15;12.73;;;-2.60;99.90;;;;;;5071435;28;20013;-82
2023/01/28 06:33:50;;;;;;;30.23;14.55;;;-2.60;99.90;;;;;;5072793;28;20060;-83
2023/01/28 06:36:16;;;;;;;26.95;12.38;;;-2.50;99.90;;;;;;5072100;28;20016;-84
2023/01/28 06:38:41;;;;;;;22.02;12.07;;;-2.50;99.90;;;;;;5071744;28;20545;-83
2023/01/28 06:41:07;;;;;;;31.88;13.88;;;-2.60;99.90;;;;;;5072849;28;20490;-83
2023/01/28 06:43:32;;;;;;;26.10;13.02;;;-2.60;99.90;;;;;;5071461;28;20044;-84
2023/01/28 06:45:58;;;;;;;31.42;15.73;;;-2.60;99.90;;;;;;5073008;28;20035;-83
2023/01/28 06:48:25;;;;;;;22.02;12.30;;;-2.60;99.90;;;;;;5071356;28;20389;-83
2023/01/28 06:50:51;;;;;;;21.75;10.82;;;-2.60;99.90;;;;;;5072661;28;20028;-82
2023/01/28 06:53:17;;;;;;;26.08;11.20;;;-2.60;99.90;;;;;;5071574;28;20566;-82
2023/01/28 06:55:43;;;;;;;25.35;12.45;;;-2.60;99.90;;;;;;5071627;28;20025;-83
2023/01/28 06:58:09;;;;;;;25.58;12.35;;;-2.50;99.90;;;;;;5072921;28;20386;-84
2023/01/28 07:00:35;;;;;;;29.77;14.07;;;-2.50;99.90;;;;;;5070564;28;20029;-82
2023/01/28 07:03:00;;;;;;;25.90;13.13;;;-2.50;99.90;;;;;;5070098;28;20017;-84
2023/01/28 07:05:26;;;;;;;28.10;14.27;;;-2.50;99.90;;;;;;5072629;28;20043;-86
2023/01/28 07:07:52;;;;;;;24.80;12.25;;;-2.50;99.90;;;;;;5071207;28;20056;-83
2023/01/28 07:10:17;;;;;;;25.75;11.95;;;-2.50;99.90;;;;;;5075435;28;20395;-87
2023/01/28 07:12:43;;;;;;;28.23;11.82;;;-2.50;99.90;;;;;;5072538;28;20482;-87
2023/01/28 07:15:09;;;;;;;33.67;13.80;;;-2.50;99.90;;;;;;5072353;28;20020;-83
2023/01/28 07:17:40;;;;;;;27.02;13.00;;;-2.50;99.90;;;;;;5076533;28;20020;-83
2023/01/28 07:20:07;;;;;;;27.02;12.00;;;-2.50;99.90;;;;;;5078590;28;20048;-87
2023/01/28 07:22:33;;;;;;;30.38;13.85;;;-2.50;99.90;;;;;;5078542;28;20385;-83
2023/01/28 07:25:00;;;;;;;22.65;11.43;;;-2.50;99.90;;;;;;5076335;28;20039;-83
2023/01/28 07:27:26;;;;;;;20.25;11.32;;;-2.50;99.90;;;;;;5076721;28;20033;-83
2023/01/28 07:29:51;;;;;;;20.70;9.23;;;-2.50;99.90;;;;;;5095762;28;20028;-83
2023/01/28 07:32:17;;;;;;;21.00;10.80;;;-2.60;99.90;;;;;;5095262;28;20127;-83
2023/01/28 07:34:43;;;;;;;17.48;11.70;;;-2.50;99.90;;;;;;5077232;28;20020;-86
2023/01/28 07:37:08;;;;;;;20.83;10.13;;;-2.50;99.90;;;;;;5077304;28;20397;-87
2023/01/28 07:39:34;;;;;;;21.20;11.85;;;-2.50;99.90;;;;;;5077260;28;20020;-83
2023/01/28 07:42:00;;;;;;;24.08;12.95;;;-2.50;99.90;;;;;;5094721;28;20044;-87
2023/01/28 07:44:26;;;;;;;18.92;10.68;;;-2.50;99.90;;;;;;5077037;28;20495;-83
2023/01/28 07:46:52;;;;;;;18.50;10.85;;;-2.50;99.90;;;;;;5077151;28;20079;-83
2023/01/28 07:49:18;;;;;;;21.55;10.05;;;-2.40;99.90;;;;;;5095217;28;20111;-83
2023/01/28 07:51:45;;;;;;;25.73;10.45;;;-2.50;99.90;;;;;;5077242;28;20127;-87
2023/01/28 07:54:11;;;;;;;19.70;10.43;;;-2.50;99.90;;;;;;5095141;28;20032;-84
2023/01/28 07:56:37;;;;;;;24.27;11.63;;;-2.40;99.90;;;;;;5075746;28;20024;-86
2023/01/28 07:59:03;;;;;;;23.80;11.93;;;-2.40;99.90;;;;;;5076689;28;20404;-86
2023/01/28 08:01:28;;;;;;;16.90;9.45;;;-2.50;99.90;;;;;;5076879;28;20032;-83
2023/01/28 08:03:54;;;;;;;18.95;10.88;;;-2.50;99.90;;;;;;5095078;28;20052;-87
2023/01/28 08:06:20;;;;;;;12.35;6.63;;;-2.40;99.90;;;;;;5077298;28;20099;-87
2023/01/28 08:08:47;;;;;;;18.15;9.95;;;-2.50;99.90;;;;;;5094568;28;20039;-85
2023/01/28 08:11:12;;;;;;;21.35;9.75;;;-2.40;99.90;;;;;;5076681;28;20129;-88
2023/01/28 08:13:38;;;;;;;17.35;8.85;;;-2.30;99.90;;;;;;5093652;28;20512;-84
2023/01/28 08:16:04;;;;;;;21.10;10.23;;;-2.40;99.90;;;;;;5076676;28;20474;-84
2023/01/28 08:18:30;;;;;;;18.55;10.02;;;-2.30;99.90;;;;;;5090913;28;20032;-86
2023/01/28 08:20:57;;;;;;;17.38;9.05;;;-2.40;99.90;;;;;;5074066;28;20029;-85
2023/01/28 08:23:22;;;;;;;20.30;10.73;;;-2.40;99.90;;;;;;5072385;28;20068;-85
2023/01/28 08:25:48;;;;;;;20.55;10.63;;;-2.30;99.90;;;;;;5073376;28;20113;-85
2023/01/28 08:28:15;;;;;;;16.75;10.43;;;-2.30;99.90;;;;;;5068612;28;20483;-85
2023/01/28 08:30:41;;;;;;;14.30;8.73;;;-2.30;99.90;;;;;;5054048;28;20056;-85
2023/01/28 08:33:09;;;;;;;16.30;8.40;;;-2.30;99.90;;;;;;5073056;28;20060;-87
2023/01/28 08:35:35;;;;;;;19.42;10.00;;;-2.30;99.90;;;;;;5072372;28;20020;-86
2023/01/28 08:38:02;;;;;;;18.63;10.77;;;-2.30;99.90;;;;;;5072225;28;20048;-85
2023/01/28 08:40:28;;;;;;;15.07;9.35;;;-2.30;99.90;;;;;;5073961;28;20035;-86
2023/01/28 08:42:55;;;;;;;32.17;14.85;;;-2.30;99.90;;;;;;5072187;28;20111;-86
2023/01/28 08:45:24;;;;;;;19.33;10.82;;;-2.20;99.90;;;;;;5074532;28;20100;-86
2023/01/28 08:47:56;;;;;;;56.38;24.38;;;-2.20;99.90;;;;;;5073949;28;20363;-86
2023/01/28 08:50:24;;;;;;;18.55;10.43;;;-2.00;99.90;;;;;;5071687;28;20032;-84
2023/01/28 08:52:55;;;;;;;18.20;9.43;;;-2.00;99.90;;;;;;5073012;28;20031;-84
2023/01/28 08:55:21;;;;;;;18.23;9.38;;;-2.10;99.90;;;;;;5071410;28;20281;-86
2023/01/28 08:57:47;;;;;;;17.98;11.07;;;-2.00;99.90;;;;;;5072663;28;20013;-83
2023/01/28 09:00:13;;;;;;;16.38;8.15;;;-2.00;99.90;;;;;;5071224;28;20023;-86
2023/01/28 09:02:39;;;;;;;14.95;8.85;;;-1.90;99.90;;;;;;5072268;28;20024;-83
2023/01/28 09:05:05;;;;;;;17.77;10.32;;;-1.90;99.90;;;;;;5071322;28;20508;-83
2023/01/28 09:07:33;;;;;;;15.27;8.55;;;-2.00;99.90;;;;;;5072775;28;20030;-83
2023/01/28 09:09:58;;;;;;;41.33;17.05;;;-2.00;99.90;;;;;;5068912;28;20029;-83
2023/01/28 09:12:24;;;;;;;48.25;19.33;;;-2.00;99.90;;;;;;5052572;28;20028;-86
2023/01/28 09:14:51;;;;;;;38.03;14.00;;;-2.00;99.90;;;;;;5064137;28;20024;-87
2023/01/28 09:17:16;;;;;;;41.03;18.15;;;-2.10;99.90;;;;;;5071105;28;20027;-86
2023/01/28 09:19:42;;;;;;;19.77;10.55;;;-2.10;99.90;;;;;;5074342;28;20048;-83
2023/01/28 09:22:08;;;;;;;19.60;10.93;;;-2.10;99.90;;;;;;5074939;28;20028;-86
2023/01/28 09:24:33;;;;;;;22.15;8.38;;;-2.00;99.90;;;;;;5074459;28;20394;-83
2023/01/28 09:26:59;;;;;;;21.30;10.93;;;-2.00;99.90;;;;;;5076181;28;20039;-83
2023/01/28 09:29:25;;;;;;;63.00;23.73;;;-2.00;99.90;;;;;;5094466;28;20013;-86
2023/01/28 09:31:50;;;;;;;25.02;11.98;;;-2.10;99.90;;;;;;5094503;28;20493;-86
2023/01/28 09:34:16;;;;;;;18.48;10.65;;;-2.10;99.90;;;;;;5076403;28;20429;-86
2023/01/28 09:36:41;;;;;;;32.88;14.15;;;-2.00;99.90;;;;;;5094334;28;20016;-84
2023/01/28 09:39:07;;;;;;;20.48;9.98;;;-2.10;99.90;;;;;;5075371;28;20115;-84
2023/01/28 09:41:52;;;;;;;22.77;12.40;;;-2.10;99.90;;;;;;5076072;28;20020;-83
2023/01/28 09:44:27;;;;;;;20.80;10.48;;;-2.10;99.90;;;;;;5075884;28;20081;-83
2023/01/28 09:46:53;;;;;;;28.90;15.45;;;-2.10;99.90;;;;;;5094297;28;20031;-86
2023/01/28 09:49:40;;;;;;;48.30;21.17;;;-2.10;99.90;;;;;;5075703;28;20024;-83
2023/01/28 09:52:13;;;;;;;21.25;12.20;;;-2.00;99.90;;;;;;5094088;28;20478;-86
2023/01/28 09:54:41;;;;;;;;;;;-2.00;99.90;;;;;;5076436;28;20027;-84
2023/01/28 09:57:31;;;;;;;25.35;10.98;;;-2.00;99.90;;;;;;5075740;28;19904;-86
2023/01/28 09:59:57;;;;;;;16.80;8.88;;;-2.00;99.90;;;;;;5061936;28;20077;-86
2023/01/28 10:02:48;;;;;;;33.60;13.02;;;-2.00;99.90;;;;;;5093694;28;20031;-86
2023/01/28 10:05:31;;;;;;;28.60;12.80;;;-1.90;99.90;;;;;;5093632;28;20089;-83
2023/01/28 10:08:15;;;;;;;;;;;-2.00;99.90;;;;;;5076491;28;20124;-83
2023/01/28 10:10:49;;;;;;;16.95;8.23;;;-1.90;99.90;;;;;;5075964;28;19973;-83
2023/01/28 10:13:50;;;;;;;26.95;12.00;;;-2.00;99.90;;;;;;5075788;28;20115;-86
2023/01/28 10:16:41;;;;;;;23.95;12.10;;;-1.90;99.90;;;;;;5092947;28;20016;-86
2023/01/28 10:19:16;;;;;;;24.55;12.07;;;-1.70;99.90;;;;;;5066607;28;20047;-85
2023/01/28 10:21:48;;;;;;;24.02;13.05;;;-1.70;99.90;;;;;;5093637;28;20031;-84
2023/01/28 10:24:26;;;;;;;21.33;11.77;;;-1.70;99.90;;;;;;5093636;28;20031;-86
2023/01/28 10:26:52;;;;;;;22.90;11.20;;;-1.70;99.90;;;;;;5075612;28;20054;-84
2023/01/28 10:29:28;;;;;;;21.52;11.18;;;-1.60;99.90;;;;;;5093605;28;20099;-83
2023/01/28 10:32:03;;;;;;;22.00;11.02;;;-1.60;99.90;;;;;;5093563;28;20077;-84
2023/01/28 10:34:29;;;;;;;18.27;10.07;;;-1.60;99.90;;;;;;5075576;28;20016;-83
2023/01/28 10:36:56;;;;;;;23.85;11.25;;;-1.50;99.90;;;;;;5093517;28;20428;-86
2023/01/28 10:39:24;;;;;;;18.90;10.80;;;-1.50;99.90;;;;;;5075280;28;20539;-84
2023/01/28 10:41:50;;;;;;;18.40;10.48;;;-1.60;99.90;;;;;;5093428;28;20018;-86
2023/01/28 10:44:31;;;;;;;21.90;10.23;;;-1.50;99.90;;;;;;5093266;28;20036;-87
2023/01/28 10:47:00;;;;;;;23.60;11.52;;;-1.50;99.90;;;;;;5075332;28;20050;-86
2023/01/28 10:49:29;;;;;;;19.67;10.27;;;-1.40;99.90;;;;;;5075585;28;20017;-84
2023/01/28 10:51:54;;;;;;;20.25;10.80;;;-1.50;98.80;;;;;;5096284;28;20024;-84
2023/01/28 10:54:20;;;;;;;22.33;11.75;;;-1.50;98.50;;;;;;5097549;28;20032;-86
2023/01/28 10:56:47;;;;;;;22.55;13.05;;;-1.60;98.80;;;;;;5097580;28;20024;-83
2023/01/28 10:59:27;;;;;;;19.70;10.52;;;-1.50;99.90;;;;;;5079699;28;20031;-84
2023/01/28 11:01:57;;;;;;;17.85;9.82;;;-1.60;99.50;;;;;;5097543;28;20021;-84
2023/01/28 11:04:25;;;;;;;17.73;10.55;;;-1.50;99.60;;;;;;5079246;28;20058;-86
2023/01/28 11:06:57;;;;;;;24.42;12.60;;;-1.50;99.40;;;;;;5079131;28;20027;-84
2023/01/28 11:09:29;;;;;;;20.23;10.48;;;-1.50;99.90;;;;;;5079154;28;20495;-84
2023/01/28 11:11:55;;;;;;;16.30;9.75;;;-1.50;99.90;;;;;;5079285;28;20112;-84
2023/01/28 11:14:23;;;;;;;18.42;10.32;;;-1.50;99.90;;;;;;5079299;28;20032;-86
2023/01/28 11:16:51;;;;;;;25.98;12.63;;;-1.60;99.70;;;;;;5097355;28;20031;-86
2023/01/28 11:19:19;;;;;;;21.70;11.50;;;-1.50;99.90;;;;;;5078788;28;20097;-83
2023/01/28 11:21:52;;;;;;;34.33;15.15;;;-1.50;99.90;;;;;;5097220;28;20073;-86
2023/01/28 11:24:22;;;;;;;17.95;10.65;;;-1.50;99.90;;;;;;5096158;28;20044;-86
2023/01/28 11:26:51;;;;;;;25.92;12.48;;;-1.50;99.90;;;;;;5096933;28;20020;-84
2023/01/28 11:29:25;;;;;;;24.00;13.07;;;-1.60;99.90;;;;;;5078709;28;20059;-86
2023/01/28 11:31:51;;;;;;;27.90;12.88;;;-1.60;99.90;;;;;;5097269;28;20388;-86
2023/01/28 11:34:18;;;;;;;22.00;11.60;;;-1.60;99.90;;;;;;5056856;28;20025;-84
2023/01/28 11:37:02;;;;;;;20.45;11.23;;;-1.60;99.90;;;;;;5056372;28;20467;-86
2023/01/28 11:39:28;;;;;;;24.27;10.70;;;-1.60;99.90;;;;;;5056516;28;20013;-84
2023/01/28 11:42:02;;;;;;;27.80;12.20;;;-1.60;99.90;;;;;;5074666;28;20043;-84
2023/01/28 11:44:28;;;;;;;23.30;12.55;;;-1.50;99.90;;;;;;5058414;28;20448;-85
2023/01/28 11:47:06;;;;;;;26.33;13.38;;;-1.50;99.90;;;;;;5058114;28;20025;-86
2023/01/28 11:50:15;;;;;;;20.95;12.05;;;-1.40;99.90;;;;;;5075875;28;20024;-84
2023/01/28 11:53:00;;;;;;;21.77;11.68;;;-1.50;99.90;;;;;;5076140;28;20044;-85
2023/01/28 11:55:31;;;;;;;23.95;11.70;;;-1.50;99.90;;;;;;5058234;28;20021;-87
2023/01/28 11:58:05;;;;;;;27.88;13.30;;;-1.40;99.90;;;;;;5057818;28;20032;-86
2023/01/28 12:01:06;;;;;;;27.17;13.80;;;-1.40;99.90;;;;;;5076004;28;20028;-85
2023/01/28 12:03:41;;;;;;;35.30;18.80;;;-1.50;99.90;;;;;;5057147;28;20072;-84
2023/01/28 12:06:40;;;;;;;32.38;17.27;;;-1.40;99.90;;;;;;5075890;28;20480;-86
2023/01/28 12:09:50;;;;;;;26.92;14.43;;;-1.40;99.90;;;;;;5057436;28;20115;-84
2023/01/28 12:12:33;;;;;;;30.75;17.42;;;-1.50;99.90;;;;;;5057620;28;20464;-86
2023/01/28 12:15:17;;;;;;;104.95;46.05;;;-1.40;99.90;;;;;;5057762;28;20029;-84
2023/01/28 12:18:02;;;;;;;42.05;22.00;;;-1.40;99.90;;;;;;5057352;28;20115;-84
2023/01/28 12:20:59;;;;;;;31.33;16.20;;;-1.30;99.90;;;;;;5057140;28;20234;-87
2023/01/28 12:23:55;;;;;;;48.58;25.52;;;-1.30;99.90;;;;;;5075224;28;20101;-86
2023/01/28 12:26:39;;;;;;;36.50;19.42;;;-1.20;99.90;;;;;;5075186;28;20032;-84
2023/01/28 12:29:20;;;;;;;32.28;15.38;;;-1.20;99.90;;;;;;5075579;28;20029;-84
2023/01/28 12:31:54;;;;;;;170.05;84.32;;;-1.20;99.90;;;;;;5057355;28;20111;-86
2023/01/28 12:34:56;;;;;;;197.57;64.07;;;-1.20;99.90;;;;;;5075592;28;20032;-86
2023/01/28 12:37:50;;;;;;;54.90;22.67;;;-1.20;99.90;;;;;;5057345;28;20444;-86
2023/01/28 12:40:21;;;;;;;86.30;39.03;;;-1.20;99.90;;;;;;5056746;28;20162;-86
2023/01/28 12:43:04;;;;;;;119.28;52.58;;;-1.30;99.90;;;;;;5075045;28;20021;-84
2023/01/28 12:45:39;;;;;;;41.35;21.50;;;-1.20;99.90;;;;;;5057063;28;20065;-86
2023/01/28 12:48:33;;;;;;;33.22;18.38;;;-1.20;99.90;;;;;;5057347;28;20124;-84
2023/01/28 12:51:09;;;;;;;125.85;47.97;;;-1.20;99.90;;;;;;5075048;28;20048;-84
2023/01/28 12:53:53;;;;;;;39.33;19.52;;;-1.20;99.90;;;;;;5074976;28;20415;-84
2023/01/28 12:56:24;;;;;;;34.22;16.52;;;-1.20;99.90;;;;;;5074746;28;20032;-87
2023/01/28 12:59:08;;;;;;;70.63;27.52;;;-1.10;99.90;;;;;;5056687;28;20437;-84
2023/01/28 13:01:50;;;;;;;81.30;30.67;;;-1.00;99.90;;;;;;5056515;28;20021;-84
2023/01/28 13:04:39;;;;;;;238.68;99.68;;;-0.90;99.90;;;;;;5056765;28;20436;-86
2023/01/28 13:07:11;;;;;;;46.72;21.88;;;-0.90;99.90;;;;;;5076961;28;20024;-84
2023/01/28 13:09:42;;;;;;;39.58;22.38;;;-1.00;99.90;;;;;;5056303;28;20025;-86
2023/01/28 13:12:11;;;;;;;35.05;18.48;;;-1.10;99.90;;;;;;5074673;28;20032;-85
2023/01/28 13:14:36;;;;;;;37.20;18.27;;;-1.20;99.90;;;;;;5056429;28;20103;-83